createdAt,value
2018-09-17T00:01:07.722Z,90.60
2018-09-17T00:03:35.398Z,90.70
2018-09-17T00:06:03.001Z,91.00
2018-09-17T00:08:30.531Z,91.10
2018-09-17T00:10:58.068Z,91.10
2018-09-17T00:13:25.581Z,91.30
2018-09-17T00:15:53.384Z,91.30
2018-09-17T00:18:20.957Z,91.40
2018-09-17T00:20:48.509Z,91.40
2018-09-17T00:23:16.053Z,91.50
2018-09-17T00:25:43.618Z,91.70
2018-09-17T00:28:11.236Z,91.70
2018-09-17T00:30:39.405Z,91.70
2018-09-17T00:33:06.991Z,91.70
2018-09-17T00:35:34.579Z,91.90
2018-09-17T00:38:02.126Z,92.10
2018-09-17T00:40:29.681Z,92.20
2018-09-17T00:42:57.233Z,92.30
2018-09-17T00:45:24.798Z,92.40
2018-09-17T00:47:52.360Z,92.20
2018-09-17T00:50:19.953Z,92.10
2018-09-17T00:52:47.501Z,92.00
2018-09-17T00:55:15.078Z,92.10
2018-09-17T00:57:42.646Z,92.20
2018-09-17T01:00:10.205Z,92.40
2018-09-17T01:02:37.838Z,92.60
2018-09-17T01:05:05.581Z,92.60
2018-09-17T01:07:33.140Z,92.50
2018-09-17T01:10:01.151Z,92.70
2018-09-17T01:12:28.693Z,92.80
2018-09-17T01:14:56.276Z,92.90
2018-09-17T01:17:23.869Z,93.10
2018-09-17T01:19:51.517Z,93.20
2018-09-17T01:22:19.025Z,93.30
2018-09-17T01:24:46.918Z,93.40
2018-09-17T01:27:14.457Z,93.50
2018-09-17T01:29:42.032Z,93.60
2018-09-17T01:32:09.589Z,93.60
2018-09-17T01:34:37.345Z,93.70
2018-09-17T01:37:04.919Z,93.60
2018-09-17T01:39:32.462Z,93.70
2018-09-17T01:42:00.005Z,93.80
2018-09-17T01:44:27.525Z,93.90
2018-09-17T01:46:55.074Z,93.80
2018-09-17T01:49:22.604Z,93.80
2018-09-17T01:51:50.158Z,94.00
2018-09-17T01:54:17.893Z,94.00
2018-09-17T01:56:45.453Z,94.00
2018-09-17T01:59:13.077Z,94.10
2018-09-17T02:01:40.621Z,94.10
2018-09-17T02:04:08.669Z,94.20
2018-09-17T02:06:36.217Z,94.30
2018-09-17T02:09:04.892Z,94.40
2018-09-17T02:11:32.506Z,94.40
2018-09-17T02:14:00.102Z,94.50
2018-09-17T02:16:27.765Z,94.40
2018-09-17T02:18:55.362Z,94.50
2018-09-17T02:21:23.617Z,94.70
2018-09-17T02:23:52.436Z,94.70
2018-09-17T02:26:19.989Z,94.80
2018-09-17T02:28:47.518Z,94.70
2018-09-17T02:31:15.069Z,94.90
2018-09-17T02:33:42.627Z,94.90
2018-09-17T02:36:10.209Z,94.90
2018-09-17T02:38:37.733Z,94.80
2018-09-17T02:41:05.347Z,94.80
2018-09-17T02:43:32.882Z,94.80
2018-09-17T02:46:00.451Z,95.10
2018-09-17T02:48:27.978Z,94.90
2018-09-17T02:50:55.648Z,95.00
2018-09-17T02:53:23.252Z,95.10
2018-09-17T02:55:50.813Z,95.10
2018-09-17T02:58:18.337Z,95.20
2018-09-17T03:00:45.881Z,95.30
2018-09-17T03:03:13.498Z,95.20
2018-09-17T03:05:41.165Z,95.30
2018-09-17T03:08:08.778Z,95.40
2018-09-17T03:10:36.337Z,95.40
2018-09-17T03:13:03.916Z,95.30
2018-09-17T03:15:42.693Z,95.40
2018-09-17T03:18:10.242Z,95.40
2018-09-17T03:20:37.769Z,95.30
2018-09-17T03:23:05.581Z,95.30
2018-09-17T03:25:33.145Z,95.40
2018-09-17T03:28:00.687Z,95.40
2018-09-17T03:30:28.254Z,95.50
2018-09-17T03:32:56.257Z,95.40
2018-09-17T03:35:23.809Z,95.40
2018-09-17T03:37:51.365Z,95.50
2018-09-17T03:40:18.914Z,95.50
2018-09-17T03:42:46.618Z,95.60
2018-09-17T03:45:15.019Z,95.60
2018-09-17T03:47:42.760Z,95.70
2018-09-17T03:50:10.316Z,95.70
2018-09-17T03:52:37.882Z,95.80
2018-09-17T03:55:05.433Z,95.90
2018-09-17T03:57:32.977Z,96.00
2018-09-17T04:00:00.517Z,96.00
2018-09-17T04:02:28.324Z,96.00
2018-09-17T04:04:55.869Z,96.10
2018-09-17T04:07:23.413Z,96.10
2018-09-17T04:09:51.085Z,96.10
2018-09-17T04:12:18.637Z,96.10
2018-09-17T04:14:46.174Z,96.20
2018-09-17T04:17:13.745Z,96.20
2018-09-17T04:19:41.260Z,96.20
2018-09-17T04:22:09.508Z,96.10
2018-09-17T04:24:37.041Z,96.30
2018-09-17T04:27:04.610Z,96.30
2018-09-17T04:29:32.154Z,96.40
2018-09-17T04:31:59.845Z,96.40
2018-09-17T04:34:27.381Z,96.60
2018-09-17T04:36:55.084Z,96.60
2018-09-17T04:39:24.118Z,96.80
2018-09-17T04:41:51.657Z,96.70
2018-09-17T04:44:19.210Z,96.80
2018-09-17T04:46:46.766Z,96.90
2018-09-17T04:49:14.311Z,97.00
2018-09-17T04:51:41.881Z,96.90
2018-09-17T04:54:09.449Z,97.00
2018-09-17T04:56:36.997Z,97.10
2018-09-17T04:59:04.537Z,97.00
2018-09-17T05:01:32.558Z,97.10
2018-09-17T05:04:00.101Z,97.40
2018-09-17T05:06:27.652Z,97.60
2018-09-17T05:08:55.211Z,97.10
2018-09-17T05:11:22.749Z,97.00
2018-09-17T05:13:50.781Z,97.10
2018-09-17T05:16:18.333Z,97.20
2018-09-17T05:18:45.884Z,97.20
2018-09-17T05:21:13.432Z,97.10
2018-09-17T05:23:41.050Z,97.20
2018-09-17T05:26:08.605Z,97.20
2018-09-17T05:28:36.173Z,97.20
2018-09-17T05:31:03.836Z,97.20
2018-09-17T05:33:31.389Z,97.00
2018-09-17T05:35:59.013Z,97.00
2018-09-17T05:38:26.580Z,97.00
2018-09-17T05:40:54.724Z,96.90
2018-09-17T05:43:22.293Z,97.00
2018-09-17T05:45:50.289Z,97.00
2018-09-17T05:48:17.942Z,97.00
2018-09-17T05:50:45.469Z,96.90
2018-09-17T05:53:13.032Z,96.80
2018-09-17T05:55:40.571Z,97.00
2018-09-17T05:58:08.719Z,96.90
2018-09-17T06:00:36.318Z,96.80
2018-09-17T06:03:03.894Z,96.70
2018-09-17T06:05:31.479Z,96.70
2018-09-17T06:07:59.087Z,96.70
2018-09-17T06:10:26.619Z,96.70
2018-09-17T06:12:54.205Z,96.70
2018-09-17T06:15:22.265Z,96.50
2018-09-17T06:17:50.441Z,96.50
2018-09-17T06:20:17.973Z,96.40
2018-09-17T06:22:45.608Z,96.10
2018-09-17T06:25:13.169Z,96.10
2018-09-17T06:27:40.758Z,96.20
2018-09-17T06:30:08.342Z,96.20
2018-09-17T06:32:36.561Z,96.10
2018-09-17T06:35:04.154Z,95.90
2018-09-17T06:37:31.745Z,96.00
2018-09-17T06:39:59.350Z,95.90
2018-09-17T06:42:27.033Z,95.80
2018-09-17T06:44:54.634Z,95.70
2018-09-17T06:47:22.100Z,95.40
2018-09-17T06:49:49.813Z,95.30
2018-09-17T06:52:17.376Z,95.10
2018-09-17T06:54:44.928Z,94.80
2018-09-17T06:57:12.477Z,94.70
2018-09-17T06:59:40.041Z,94.50
2018-09-17T07:02:07.654Z,94.30
2018-09-17T07:04:35.265Z,93.90
2018-09-17T07:07:02.979Z,93.70
2018-09-17T07:09:30.533Z,93.50
2018-09-17T07:11:58.045Z,93.40
2018-09-17T07:14:26.613Z,93.00
2018-09-17T07:16:54.143Z,92.80
2018-09-17T07:19:21.718Z,92.70
2018-09-17T07:21:49.237Z,92.50
2018-09-17T07:26:44.269Z,92.10
2018-09-17T07:29:11.817Z,93.30
2018-09-17T07:31:39.344Z,93.80
2018-09-17T07:34:06.897Z,93.10
2018-09-17T07:36:34.510Z,91.50
2018-09-17T07:39:02.065Z,91.40
2018-09-17T07:41:29.601Z,91.40
2018-09-17T07:43:57.137Z,91.20
2018-09-17T07:46:24.660Z,91.00
2018-09-17T07:48:52.313Z,90.70
2018-09-17T07:51:19.858Z,90.30
2018-09-17T07:53:47.424Z,90.30
2018-09-17T07:56:14.969Z,90.20
2018-09-17T07:58:42.517Z,89.90
2018-09-17T08:01:10.117Z,89.00
2018-09-17T08:03:37.673Z,88.30
2018-09-17T08:06:05.231Z,88.00
2018-09-17T08:08:32.797Z,87.50
2018-09-17T08:11:00.365Z,87.80
2018-09-17T08:13:27.909Z,87.60
2018-09-17T08:15:55.463Z,86.90
2018-09-17T08:18:22.999Z,86.40
2018-09-17T08:20:50.576Z,85.20
2018-09-17T08:23:18.104Z,84.70
2018-09-17T08:25:45.904Z,84.40
2018-09-17T08:28:13.440Z,83.20
2018-09-17T08:30:41.029Z,86.90
2018-09-17T08:33:08.557Z,86.10
2018-09-17T08:35:36.101Z,81.80
2018-09-17T08:38:03.724Z,80.60
2018-09-17T08:40:31.248Z,80.40
2018-09-17T08:42:58.800Z,79.90
2018-09-17T08:45:26.396Z,79.90
2018-09-17T08:47:56.717Z,78.90
2018-09-17T08:50:24.270Z,79.00
2018-09-17T08:52:51.822Z,77.20
2018-09-17T08:55:25.114Z,76.90
2018-09-17T08:57:55.554Z,77.30
2018-09-17T09:00:27.673Z,76.10
2018-09-17T09:03:00.888Z,76.20
2018-09-17T09:05:38.961Z,75.60
2018-09-17T09:08:06.939Z,74.10
2018-09-17T09:10:40.617Z,73.90
2018-09-17T09:13:08.186Z,73.50
2018-09-17T09:15:39.081Z,73.80
2018-09-17T09:18:07.432Z,73.70
2018-09-17T09:20:35.465Z,73.40
2018-09-17T09:23:03.013Z,73.30
2018-09-17T09:25:30.805Z,72.60
2018-09-17T09:27:58.360Z,71.90
2018-09-17T09:30:28.891Z,70.70
2018-09-17T09:32:56.651Z,71.00
2018-09-17T09:35:24.189Z,69.70
2018-09-17T09:37:52.184Z,70.00
2018-09-17T09:40:19.761Z,69.80
2018-09-17T09:42:47.413Z,69.80
2018-09-17T09:45:15.726Z,68.00
2018-09-17T09:47:43.573Z,67.10
2018-09-17T09:50:11.125Z,67.60
2018-09-17T09:52:38.723Z,67.00
2018-09-17T09:55:06.237Z,66.40
2018-09-17T09:57:33.798Z,65.00
2018-09-17T10:00:01.346Z,61.90
2018-09-17T10:02:35.429Z,62.00
2018-09-17T10:05:04.273Z,59.70
2018-09-17T10:07:31.824Z,62.50
2018-09-17T10:10:05.354Z,65.60
2018-09-17T10:12:38.528Z,62.60
2018-09-17T10:15:11.665Z,60.20
2018-09-17T10:17:44.917Z,59.30
2018-09-17T10:20:12.493Z,58.70
2018-09-17T10:22:40.033Z,58.80
2018-09-17T10:25:07.581Z,58.30
2018-09-17T10:27:35.144Z,57.30
2018-09-17T10:30:02.830Z,57.50
2018-09-17T10:32:30.262Z,59.00
2018-09-17T10:34:57.817Z,59.90
2018-09-17T10:37:25.368Z,59.60
2018-09-17T10:39:52.900Z,58.20
2018-09-17T10:42:20.469Z,57.90
2018-09-17T10:44:47.999Z,57.80
2018-09-17T10:47:15.558Z,56.40
2018-09-17T10:49:43.097Z,56.40
2018-09-17T10:52:10.638Z,56.00
2018-09-17T10:54:38.160Z,57.80
2018-09-17T10:57:05.789Z,55.60
2018-09-17T10:59:33.329Z,55.00
2018-09-17T11:02:01.442Z,54.30
2018-09-17T11:04:29.322Z,54.50
2018-09-17T11:06:56.890Z,54.40
2018-09-17T11:09:24.482Z,55.00
2018-09-17T11:11:52.045Z,54.60
2018-09-17T11:14:19.600Z,53.60
2018-09-17T11:16:47.180Z,54.10
2018-09-17T11:19:14.717Z,54.20
2018-09-17T11:21:42.249Z,54.10
2018-09-17T11:24:09.772Z,52.80
2018-09-17T11:26:37.324Z,52.00
2018-09-17T11:29:05.046Z,52.50
2018-09-17T11:31:32.601Z,51.80
2018-09-17T11:34:00.193Z,50.80
2018-09-17T11:36:27.744Z,50.90
2018-09-17T11:38:55.301Z,50.60
2018-09-17T11:41:22.884Z,50.00
2018-09-17T11:43:50.472Z,49.70
2018-09-17T11:46:18.012Z,49.30
2018-09-17T11:48:45.619Z,48.90
2018-09-17T11:51:13.156Z,48.60
2018-09-17T11:53:40.853Z,47.90
2018-09-17T11:56:08.724Z,47.90
2018-09-17T11:58:36.749Z,47.50
2018-09-17T12:01:09.965Z,47.60
2018-09-17T12:03:43.182Z,47.10
2018-09-17T12:06:11.130Z,46.90
2018-09-17T12:08:38.689Z,46.70
2018-09-17T12:11:06.216Z,46.60
2018-09-17T12:13:33.753Z,46.20
2018-09-17T12:16:01.295Z,46.30
2018-09-17T12:18:28.843Z,44.70
2018-09-17T12:20:56.361Z,45.00
2018-09-17T12:23:23.933Z,45.30
2018-09-17T12:25:51.445Z,46.00
2018-09-17T12:28:19.065Z,44.70
2018-09-17T12:30:46.585Z,44.50
2018-09-17T12:33:14.177Z,44.20
2018-09-17T12:35:41.709Z,43.60
2018-09-17T12:38:09.455Z,43.60
2018-09-17T12:40:36.997Z,43.60
2018-09-17T12:43:04.860Z,43.20
2018-09-17T12:45:32.404Z,43.00
2018-09-17T12:48:00.617Z,43.00
2018-09-17T12:50:28.540Z,41.40
2018-09-17T12:52:56.085Z,41.80
2018-09-17T12:55:23.633Z,40.90
2018-09-17T12:57:51.193Z,41.10
2018-09-17T13:00:18.808Z,39.10
2018-09-17T13:02:46.393Z,39.50
2018-09-17T13:05:13.960Z,39.30
2018-09-17T13:07:41.613Z,38.10
2018-09-17T13:10:09.221Z,39.50
2018-09-17T13:12:37.212Z,38.40
2018-09-17T13:15:05.425Z,37.90
2018-09-17T13:17:32.977Z,37.20
2018-09-17T13:20:00.513Z,37.90
2018-09-17T13:22:28.033Z,37.40
2018-09-17T13:24:55.644Z,37.20
2018-09-17T13:27:23.193Z,38.50
2018-09-17T13:29:50.764Z,36.80
2018-09-17T13:32:18.292Z,36.20
2018-09-17T13:34:45.873Z,35.60
2018-09-17T13:37:13.492Z,35.90
2018-09-17T13:39:41.117Z,35.80
2018-09-17T13:42:08.655Z,35.20
2018-09-17T13:44:36.378Z,35.70
2018-09-17T13:47:04.499Z,37.20
2018-09-17T13:49:32.073Z,37.30
2018-09-17T13:51:59.684Z,36.60
2018-09-17T13:54:27.838Z,34.90
2018-09-17T13:56:55.417Z,34.00
2018-09-17T13:59:22.997Z,33.80
2018-09-17T14:01:50.567Z,33.60
2018-09-17T14:04:18.270Z,32.90
2018-09-17T14:06:45.749Z,32.10
2018-09-17T14:09:13.328Z,30.50
2018-09-17T14:11:41.327Z,29.80
2018-09-17T14:14:09.092Z,28.60
2018-09-17T14:16:36.608Z,27.50
2018-09-17T14:19:04.510Z,27.00
2018-09-17T14:21:32.077Z,26.60
2018-09-17T14:23:59.848Z,26.50
2018-09-17T14:26:28.233Z,26.70
2018-09-17T14:28:55.764Z,26.20
2018-09-17T14:31:29.013Z,25.80
2018-09-17T14:33:56.539Z,25.10
2018-09-17T14:36:24.082Z,24.70
2018-09-17T14:38:51.608Z,24.90
2018-09-17T14:41:19.342Z,25.00
2018-09-17T14:43:47.133Z,25.20
2018-09-17T14:46:14.789Z,25.20
2018-09-17T14:48:42.331Z,25.10
2018-09-17T14:51:10.075Z,25.20
2018-09-17T14:53:37.828Z,24.70
2018-09-17T14:56:05.306Z,24.20
2018-09-17T14:58:32.864Z,23.90
2018-09-17T15:01:00.479Z,23.70
2018-09-17T15:03:28.213Z,23.80
2018-09-17T15:05:56.193Z,23.60
2018-09-17T15:08:23.908Z,24.00
2018-09-17T15:10:51.559Z,23.60
2018-09-17T15:13:19.192Z,23.10
2018-09-17T15:15:52.295Z,23.40
2018-09-17T15:18:19.852Z,23.30
2018-09-17T15:20:47.397Z,23.30
2018-09-17T15:23:14.962Z,23.20
2018-09-17T15:25:42.560Z,23.10
2018-09-17T15:28:10.476Z,22.90
2018-09-17T15:30:38.177Z,22.60
2018-09-17T15:33:05.953Z,22.30
2018-09-17T15:35:33.480Z,22.40
2018-09-17T15:38:01.122Z,22.40
2018-09-17T15:40:28.663Z,22.90
2018-09-17T15:42:56.272Z,23.90
2018-09-17T15:45:23.805Z,23.60
2018-09-17T15:47:51.465Z,24.10
2018-09-17T15:50:19.171Z,24.30
2018-09-17T15:52:47.049Z,24.60
2018-09-17T15:55:14.687Z,24.80
2018-09-17T15:57:42.931Z,24.90
2018-09-17T16:00:10.596Z,25.30
2018-09-17T16:02:38.176Z,24.90
2018-09-17T16:05:06.046Z,26.00
2018-09-17T16:07:33.605Z,26.50
2018-09-17T16:10:01.141Z,27.00
2018-09-17T16:12:28.694Z,27.60
2018-09-17T16:14:56.264Z,27.70
2018-09-17T16:17:23.810Z,28.10
2018-09-17T16:19:51.353Z,28.50
2018-09-17T16:22:18.886Z,28.70
2018-09-17T16:24:46.436Z,28.90
2018-09-17T16:27:14.046Z,29.00
2018-09-17T16:29:45.380Z,28.80
2018-09-17T16:32:13.481Z,29.70
2018-09-17T16:34:41.041Z,29.90
2018-09-17T16:37:08.572Z,30.70
2018-09-17T16:39:36.121Z,31.30
2018-09-17T16:42:03.720Z,32.20
2018-09-17T16:44:31.299Z,32.30
2018-09-17T16:46:58.908Z,32.90
2018-09-17T16:49:26.478Z,32.90
2018-09-17T16:51:54.045Z,32.10
2018-09-17T16:54:21.606Z,31.40
2018-09-17T16:56:55.449Z,30.60
2018-09-17T16:59:23.224Z,31.30
2018-09-17T17:01:51.065Z,31.90
2018-09-17T17:04:19.648Z,30.80
2018-09-17T17:06:47.219Z,31.80
2018-09-17T17:09:15.300Z,31.40
2018-09-17T17:11:42.946Z,31.20
2018-09-17T17:14:11.116Z,30.80
2018-09-17T17:16:39.261Z,31.80
2018-09-17T17:19:06.984Z,32.30
2018-09-17T17:21:34.502Z,33.40
2018-09-17T17:24:02.061Z,33.10
2018-09-17T17:26:29.585Z,34.20
2018-09-17T17:28:57.196Z,35.30
2018-09-17T17:31:24.717Z,34.30
2018-09-17T17:33:52.548Z,36.40
2018-09-17T17:36:20.506Z,37.50
2018-09-17T17:38:48.024Z,37.90
2018-09-17T17:41:15.682Z,37.70
2018-09-17T17:43:43.249Z,37.40
2018-09-17T17:46:10.893Z,38.10
2018-09-17T17:48:38.737Z,36.50
2018-09-17T17:51:06.572Z,38.10
2018-09-17T17:56:04.737Z,37.90
2018-09-17T17:58:32.437Z,38.10
2018-09-17T18:01:00.211Z,38.40
2018-09-17T18:03:27.686Z,38.10
2018-09-17T18:05:55.296Z,38.10
2018-09-17T18:08:22.824Z,38.50
2018-09-17T18:10:50.377Z,37.70
2018-09-17T18:13:18.162Z,38.30
2018-09-17T18:15:45.825Z,37.50
2018-09-17T18:18:13.409Z,37.40
2018-09-17T18:20:41.014Z,38.50
2018-09-17T18:23:08.561Z,39.70
2018-09-17T18:25:36.168Z,40.60
2018-09-17T18:28:03.715Z,40.80
2018-09-17T18:30:31.826Z,40.80
2018-09-17T18:32:59.474Z,41.30
2018-09-17T18:35:27.020Z,42.20
2018-09-17T18:37:54.577Z,42.50
2018-09-17T18:40:22.118Z,41.40
2018-09-17T18:42:50.327Z,41.80
2018-09-17T18:45:17.925Z,40.40
2018-09-17T18:47:45.491Z,40.00
2018-09-17T18:50:13.021Z,40.90
2018-09-17T18:52:40.573Z,41.40
2018-09-17T18:55:08.158Z,40.90
2018-09-17T18:57:35.734Z,40.30
2018-09-17T19:00:03.465Z,40.70
2018-09-17T19:02:31.219Z,40.30
2018-09-17T19:04:58.757Z,40.50
2018-09-17T19:07:28.071Z,40.70
2018-09-17T19:09:55.931Z,40.80
2018-09-17T19:12:23.859Z,41.50
2018-09-17T19:14:57.020Z,42.40
2018-09-17T19:17:30.069Z,42.20
2018-09-17T19:19:57.687Z,42.00
2018-09-17T19:22:31.056Z,41.70
2018-09-17T19:25:03.751Z,43.20
2018-09-17T19:27:37.261Z,43.00
2018-09-17T19:30:04.876Z,42.70
2018-09-17T19:32:32.481Z,43.20
2018-09-17T19:35:01.393Z,43.60
2018-09-17T19:37:34.387Z,43.60
2018-09-17T19:40:07.653Z,44.20
2018-09-17T19:42:35.410Z,43.60
2018-09-17T19:45:08.953Z,44.10
2018-09-17T19:47:36.549Z,44.80
2018-09-17T19:50:08.821Z,45.10
2018-09-17T19:52:36.351Z,45.00
2018-09-17T19:55:04.270Z,44.40
2018-09-17T19:57:37.401Z,44.30
2018-09-17T20:00:05.553Z,44.20
2018-09-17T20:02:33.106Z,44.30
2018-09-17T20:05:06.383Z,44.80
2018-09-17T20:07:33.928Z,45.40
2018-09-17T20:10:01.472Z,45.30
2018-09-17T20:12:29.034Z,46.70
2018-09-17T20:14:56.597Z,46.40
2018-09-17T20:17:24.662Z,47.40
2018-09-17T20:19:52.229Z,48.10
2018-09-17T20:22:19.761Z,48.10
2018-09-17T20:24:47.336Z,48.00
2018-09-17T20:27:14.928Z,48.70
2018-09-17T20:29:42.522Z,48.80
2018-09-17T20:32:10.064Z,48.80
2018-09-17T20:34:37.648Z,48.70
2018-09-17T20:37:05.247Z,48.70
2018-09-17T20:39:32.786Z,48.60
2018-09-17T20:42:00.469Z,48.50
2018-09-17T20:44:28.059Z,48.60
2018-09-17T20:46:55.593Z,48.90
2018-09-17T20:49:23.192Z,49.10
2018-09-17T20:51:50.901Z,49.60
2018-09-17T20:54:18.460Z,50.00
2018-09-17T20:56:46.505Z,50.00
2018-09-17T20:59:14.070Z,50.40
2018-09-17T21:01:41.830Z,50.30
2018-09-17T21:04:09.332Z,50.80
2018-09-17T21:06:36.889Z,51.50
2018-09-17T21:09:07.289Z,52.30
2018-09-17T21:11:34.810Z,52.90
2018-09-17T21:14:02.380Z,53.10
2018-09-17T21:16:29.955Z,53.00
2018-09-17T21:18:57.603Z,53.90
2018-09-17T21:21:25.297Z,54.30
2018-09-17T21:23:53.105Z,54.60
2018-09-17T21:26:20.637Z,54.80
2018-09-17T21:28:48.213Z,55.60
2018-09-17T21:31:15.804Z,56.20
2018-09-17T21:33:43.323Z,56.70
2018-09-17T21:36:10.909Z,56.90
2018-09-17T21:38:38.451Z,57.50
2018-09-17T21:41:06.021Z,57.10
2018-09-17T21:43:33.550Z,58.10
2018-09-17T21:46:01.113Z,58.40
2018-09-17T21:48:28.771Z,59.10
2018-09-17T21:50:56.321Z,59.70
2018-09-17T21:53:23.863Z,60.10
2018-09-17T21:55:51.417Z,60.00
2018-09-17T21:58:18.948Z,60.60
2018-09-17T22:00:52.242Z,60.70
2018-09-17T22:03:19.791Z,61.10
2018-09-17T22:05:47.353Z,61.90
2018-09-17T22:08:15.073Z,61.80
2018-09-17T22:10:42.619Z,62.60
2018-09-17T22:13:10.221Z,62.80
2018-09-17T22:15:37.785Z,62.90
2018-09-17T22:18:05.332Z,63.20
2018-09-17T22:20:32.882Z,63.50
2018-09-17T22:23:01.393Z,63.20
2018-09-17T22:25:29.802Z,63.80
2018-09-17T22:27:57.352Z,64.30
2018-09-17T22:30:24.897Z,64.40
2018-09-17T22:32:52.412Z,64.30
2018-09-17T22:35:20.135Z,64.40
2018-09-17T22:37:47.658Z,64.80
2018-09-17T22:40:15.271Z,64.70
2018-09-17T22:42:43.041Z,65.00
2018-09-17T22:45:10.565Z,65.40
2018-09-17T22:47:38.130Z,65.40
2018-09-17T22:50:05.829Z,65.60
2018-09-17T22:52:33.426Z,66.00
2018-09-17T22:55:00.956Z,66.60
2018-09-17T22:57:28.513Z,66.90
2018-09-17T22:59:56.057Z,67.30
2018-09-17T23:02:23.632Z,67.80
2018-09-17T23:04:51.184Z,67.60
2018-09-17T23:07:19.213Z,68.20
2018-09-17T23:09:46.761Z,68.50
2018-09-17T23:12:14.340Z,68.90
2018-09-17T23:14:41.889Z,69.60
2018-09-17T23:17:09.453Z,69.80
2018-09-17T23:19:36.973Z,69.90
2018-09-17T23:22:04.538Z,70.10
2018-09-17T23:24:33.093Z,70.70
2018-09-17T23:27:00.686Z,70.90
2018-09-17T23:29:28.225Z,71.20
2018-09-17T23:31:55.800Z,71.70
2018-09-17T23:34:23.465Z,72.00
2018-09-17T23:36:51.024Z,72.30
2018-09-17T23:39:18.552Z,72.70
2018-09-17T23:41:46.093Z,72.70
2018-09-17T23:44:13.738Z,72.80
2018-09-17T23:46:41.265Z,72.90
2018-09-17T23:49:08.811Z,72.90
2018-09-17T23:51:36.355Z,73.20
2018-09-17T23:54:03.941Z,73.50
2018-09-17T23:56:31.678Z,73.70
2018-09-17T23:58:59.289Z,74.10
